createdAt,value
2023-05-22T00:01:04.832Z,18.02
2023-05-22T00:03:31.302Z,19.30
2023-05-22T00:05:58.812Z,18.33
2023-05-22T00:08:29.310Z,18.38
2023-05-22T00:10:56.199Z,19.25
2023-05-22T00:13:22.688Z,25.08
2023-05-22T00:15:49.535Z,17.85
2023-05-22T00:18:16.149Z,18.55
2023-05-22T00:20:42.734Z,19.65
2023-05-22T00:23:10.225Z,20.20
2023-05-22T00:25:37.426Z,23.80
2023-05-22T00:28:04.782Z,22.60
2023-05-22T00:30:31.840Z,20.00
2023-05-22T00:32:58.482Z,23.15
2023-05-22T00:35:25.021Z,23.20
2023-05-22T00:37:51.452Z,20.15
2023-05-22T00:40:18.050Z,20.00
2023-05-22T00:42:44.944Z,19.85
2023-05-22T00:45:15.023Z,21.67
2023-05-22T00:47:42.006Z,24.23
2023-05-22T00:50:11.014Z,23.48
2023-05-22T00:52:42.962Z,25.27
2023-05-22T00:55:11.870Z,23.30
2023-05-22T00:57:41.888Z,25.38
2023-05-22T01:02:38.130Z,21.85
2023-05-22T01:05:11.145Z,22.63
2023-05-22T01:07:38.657Z,23.77
2023-05-22T01:10:06.121Z,24.38
2023-05-22T01:13:02.423Z,22.77
2023-05-22T01:15:47.295Z,25.20
2023-05-22T01:18:25.088Z,25.02
2023-05-22T01:21:04.175Z,20.90
2023-05-22T01:24:04.439Z,28.77
2023-05-22T01:26:58.878Z,28.20
2023-05-22T01:29:55.678Z,25.30
2023-05-22T01:32:25.754Z,28.05
2023-05-22T01:34:54.768Z,23.88
2023-05-22T01:37:22.530Z,31.05
2023-05-22T01:39:51.454Z,26.58
2023-05-22T01:42:18.943Z,23.95
2023-05-22T01:44:45.492Z,22.60
2023-05-22T01:47:11.998Z,25.92
2023-05-22T01:49:39.810Z,23.95
2023-05-22T01:52:06.667Z,21.67
2023-05-22T01:54:43.020Z,21.77
2023-05-22T01:57:12.252Z,18.27
2023-05-22T02:00:05.613Z,23.88
2023-05-22T02:02:49.090Z,18.38
2023-05-22T02:05:19.007Z,59.17
2023-05-22T02:07:47.560Z,18.25
2023-05-22T02:10:15.926Z,16.48
2023-05-22T02:12:42.638Z,20.83
2023-05-22T02:15:09.480Z,19.60
2023-05-22T02:17:42.626Z,18.15
2023-05-22T02:20:15.359Z,18.05
2023-05-22T02:22:47.885Z,18.63
2023-05-22T02:25:17.045Z,20.15
2023-05-22T02:27:45.910Z,17.63
2023-05-22T02:30:13.650Z,20.05
2023-05-22T02:32:42.295Z,17.15
2023-05-22T02:35:09.523Z,19.83
2023-05-22T02:37:36.782Z,21.17
2023-05-22T02:40:06.685Z,18.45
2023-05-22T02:42:34.434Z,16.88
2023-05-22T02:45:01.719Z,20.98
2023-05-22T02:47:28.341Z,16.88
2023-05-22T02:49:57.757Z,18.50
2023-05-22T02:52:24.888Z,14.40
2023-05-22T02:54:51.435Z,20.38
2023-05-22T02:57:18.576Z,19.55
2023-05-22T02:59:45.051Z,20.42
2023-05-22T03:02:14.979Z,10.70
2023-05-22T03:04:41.893Z,13.43
2023-05-22T03:07:08.840Z,13.98
2023-05-22T03:09:35.850Z,16.15
2023-05-22T03:12:02.405Z,18.33
2023-05-22T03:14:29.244Z,22.70
2023-05-22T03:16:56.299Z,36.78
2023-05-22T03:19:23.210Z,25.35
2023-05-22T03:21:50.060Z,21.30
2023-05-22T03:24:16.948Z,24.02
2023-05-22T03:26:43.905Z,30.88
2023-05-22T03:29:16.759Z,28.15
2023-05-22T03:31:43.590Z,36.88
2023-05-22T03:34:13.492Z,45.35
2023-05-22T03:36:42.331Z,25.17
2023-05-22T03:39:08.850Z,48.97
2023-05-22T03:41:40.175Z,20.27
2023-05-22T03:44:07.397Z,26.08
2023-05-22T03:46:33.936Z,38.53
2023-05-22T03:49:00.445Z,48.20
2023-05-22T03:51:27.023Z,48.35
2023-05-22T03:53:53.668Z,45.40
2023-05-22T03:56:21.091Z,30.75
2023-05-22T03:58:48.767Z,51.40
2023-05-22T04:01:16.924Z,62.95
2023-05-22T04:03:44.023Z,40.25
2023-05-22T04:06:10.904Z,44.28
2023-05-22T04:08:37.370Z,35.67
2023-05-22T04:11:05.320Z,41.80
2023-05-22T04:13:33.062Z,44.47
2023-05-22T04:16:01.955Z,35.17
2023-05-22T04:18:28.794Z,48.50
2023-05-22T04:20:57.404Z,44.80
2023-05-22T04:23:24.035Z,39.15
2023-05-22T04:25:51.229Z,38.30
2023-05-22T04:28:22.255Z,37.90
2023-05-22T04:30:49.388Z,39.20
2023-05-22T04:33:18.064Z,33.60
2023-05-22T04:35:44.615Z,25.95
2023-05-22T04:38:11.119Z,25.30
2023-05-22T04:40:38.084Z,35.10
2023-05-22T04:43:05.040Z,21.60
2023-05-22T04:45:32.778Z,26.55
2023-05-22T04:48:02.340Z,33.92
2023-05-22T04:50:32.531Z,20.15
2023-05-22T04:53:05.763Z,24.80
2023-05-22T04:55:35.146Z,27.52
2023-05-22T04:58:01.637Z,20.52
2023-05-22T05:00:29.093Z,29.27
2023-05-22T05:02:57.418Z,23.80
2023-05-22T05:05:24.301Z,26.20
2023-05-22T05:07:51.747Z,25.48
2023-05-22T05:10:19.455Z,28.70
2023-05-22T05:12:45.936Z,25.30
2023-05-22T05:15:12.728Z,25.95
2023-05-22T05:17:39.585Z,27.40
2023-05-22T05:20:07.878Z,26.58
2023-05-22T05:22:34.354Z,27.73
2023-05-22T05:25:03.624Z,24.83
2023-05-22T05:27:30.100Z,25.55
2023-05-22T05:29:58.842Z,29.33
2023-05-22T05:32:31.062Z,26.38
2023-05-22T05:35:07.787Z,25.55
2023-05-22T05:37:44.053Z,27.38
2023-05-22T05:40:12.194Z,28.75
2023-05-22T05:42:43.762Z,29.20
2023-05-22T05:45:11.392Z,24.92
2023-05-22T05:47:37.939Z,28.05
2023-05-22T05:50:04.914Z,26.85
2023-05-22T05:52:33.576Z,24.63
2023-05-22T05:55:04.337Z,23.65
2023-05-22T05:57:31.143Z,20.40
2023-05-22T05:59:57.973Z,25.40
2023-05-22T06:02:43.551Z,20.92
2023-05-22T06:05:26.852Z,24.33
2023-05-22T06:08:00.248Z,21.17
2023-05-22T06:10:27.208Z,21.48
2023-05-22T06:13:12.336Z,22.25
2023-05-22T06:15:40.038Z,23.90
2023-05-22T06:18:06.715Z,20.35
2023-05-22T06:20:33.406Z,19.55
2023-05-22T06:23:00.250Z,21.35
2023-05-22T06:25:29.938Z,18.77
2023-05-22T06:27:57.042Z,19.15
2023-05-22T06:30:43.720Z,21.70
2023-05-22T06:33:14.590Z,22.50
2023-05-22T06:35:42.111Z,19.30
2023-05-22T06:38:08.910Z,20.13
2023-05-22T06:40:35.665Z,16.98
2023-05-22T06:43:10.162Z,18.52
2023-05-22T06:45:46.002Z,21.30
2023-05-22T06:48:12.639Z,18.73
2023-05-22T06:50:51.994Z,18.92
2023-05-22T06:53:18.580Z,18.65
2023-05-22T06:55:45.166Z,16.95
2023-05-22T06:58:18.661Z,18.38
2023-05-22T07:00:45.296Z,17.98
2023-05-22T07:03:18.954Z,19.83
2023-05-22T07:06:18.329Z,16.90
2023-05-22T07:08:45.540Z,16.67
2023-05-22T07:11:12.122Z,19.00
2023-05-22T07:13:38.603Z,15.45
2023-05-22T07:16:06.384Z,19.30
2023-05-22T07:18:34.244Z,18.65
2023-05-22T07:21:01.518Z,15.90
2023-05-22T07:23:28.745Z,20.15
2023-05-22T07:25:55.389Z,17.35
2023-05-22T07:28:25.528Z,19.38
2023-05-22T07:31:00.336Z,16.63
2023-05-22T07:33:27.195Z,18.00
2023-05-22T07:35:54.791Z,16.48
2023-05-22T07:38:21.301Z,15.30
2023-05-22T07:40:56.356Z,15.75
2023-05-22T07:43:23.703Z,18.08
2023-05-22T07:45:51.153Z,15.25
2023-05-22T07:48:21.648Z,17.45
2023-05-22T07:50:48.307Z,17.38
2023-05-22T07:53:16.340Z,17.40
2023-05-22T07:55:44.294Z,15.43
2023-05-22T07:58:11.359Z,19.35
2023-05-22T08:00:41.709Z,16.92
2023-05-22T08:03:08.545Z,16.90
2023-05-22T08:05:35.170Z,18.48
2023-05-22T08:08:02.961Z,18.35
2023-05-22T08:10:37.218Z,19.65
2023-05-22T08:13:13.358Z,20.02
2023-05-22T08:15:39.813Z,14.68
2023-05-22T08:18:06.405Z,18.73
2023-05-22T08:20:33.530Z,17.73
2023-05-22T08:23:00.327Z,16.63
2023-05-22T08:25:26.845Z,18.35
2023-05-22T08:27:53.329Z,17.88
2023-05-22T08:30:19.850Z,15.75
2023-05-22T08:32:46.394Z,17.80
2023-05-22T08:35:14.221Z,14.85
2023-05-22T08:37:41.242Z,16.02
2023-05-22T08:40:11.481Z,17.60
2023-05-22T08:42:38.481Z,16.80
2023-05-22T08:45:07.004Z,18.95
2023-05-22T08:47:35.926Z,17.98
2023-05-22T08:50:03.206Z,14.73
2023-05-22T08:52:51.030Z,15.65
2023-05-22T08:55:19.525Z,18.52
2023-05-22T08:57:47.285Z,17.52
2023-05-22T09:00:14.420Z,15.07
2023-05-22T09:02:42.477Z,16.58
2023-05-22T09:05:09.792Z,19.92
2023-05-22T09:07:37.956Z,17.33
2023-05-22T09:10:07.040Z,18.17
2023-05-22T09:12:34.063Z,18.15
2023-05-22T09:15:10.142Z,18.10
2023-05-22T09:17:40.696Z,17.27
2023-05-22T09:20:10.084Z,19.17
2023-05-22T09:22:38.219Z,17.92
2023-05-22T09:25:05.418Z,17.67
2023-05-22T09:27:32.106Z,16.58
2023-05-22T09:29:58.668Z,15.20
2023-05-22T09:32:29.656Z,15.07
2023-05-22T09:35:04.027Z,19.30
2023-05-22T09:37:37.288Z,18.30
2023-05-22T09:40:09.474Z,18.35
2023-05-22T09:42:36.438Z,18.58
2023-05-22T09:45:07.752Z,20.17
2023-05-22T09:47:35.013Z,19.65
2023-05-22T09:50:06.188Z,19.63
2023-05-22T09:52:34.837Z,18.85
2023-05-22T09:55:08.830Z,16.98
2023-05-22T09:57:43.898Z,18.73
2023-05-22T10:00:15.910Z,13.52
2023-05-22T10:02:48.737Z,14.13
2023-05-22T10:05:22.068Z,11.25
2023-05-22T10:07:56.090Z,13.20
2023-05-22T10:10:25.917Z,14.95
2023-05-22T10:13:03.612Z,13.65
2023-05-22T10:15:32.153Z,15.38
2023-05-22T10:17:59.285Z,13.65
2023-05-22T10:20:26.835Z,11.52
2023-05-22T10:22:53.974Z,18.13
2023-05-22T10:25:23.337Z,13.80
2023-05-22T10:27:53.423Z,15.32
2023-05-22T10:30:47.648Z,14.63
2023-05-22T10:33:30.686Z,13.95
2023-05-22T10:36:08.610Z,16.58
2023-05-22T10:39:04.640Z,14.55
2023-05-22T10:41:31.370Z,14.63
2023-05-22T10:43:58.325Z,12.20
2023-05-22T10:46:25.302Z,12.57
2023-05-22T10:48:54.074Z,11.25
2023-05-22T10:51:23.557Z,12.43
2023-05-22T10:53:58.267Z,11.63
2023-05-22T10:56:33.228Z,11.40
2023-05-22T10:59:08.345Z,9.57
2023-05-22T11:01:37.890Z,12.93
2023-05-22T11:04:18.722Z,13.02
2023-05-22T11:07:02.702Z,13.02
2023-05-22T11:09:31.085Z,11.80
2023-05-22T11:12:27.442Z,12.98
2023-05-22T11:14:56.864Z,11.10
2023-05-22T11:17:28.953Z,10.82
2023-05-22T11:20:02.935Z,12.43
2023-05-22T11:22:37.554Z,12.57
2023-05-22T11:25:10.747Z,10.27
2023-05-22T11:27:40.608Z,10.18
2023-05-22T11:30:08.759Z,10.48
2023-05-22T11:32:39.674Z,13.95
2023-05-22T11:35:08.474Z,12.65
2023-05-22T11:37:41.637Z,11.25
2023-05-22T11:40:09.629Z,11.02
2023-05-22T11:42:37.615Z,12.18
2023-05-22T11:45:05.160Z,11.90
2023-05-22T11:47:31.834Z,13.77
2023-05-22T11:49:59.770Z,12.80
2023-05-22T11:52:33.967Z,11.57
2023-05-22T11:55:01.264Z,13.05
2023-05-22T11:57:28.366Z,14.55
2023-05-22T11:59:54.879Z,11.80
2023-05-22T12:02:21.444Z,11.27
2023-05-22T12:04:47.935Z,9.68
2023-05-22T12:07:14.499Z,13.40
2023-05-22T12:09:42.710Z,10.05
2023-05-22T12:12:11.240Z,10.85
2023-05-22T12:14:37.890Z,10.95
2023-05-22T12:17:04.472Z,9.32
2023-05-22T12:19:31.203Z,8.55
2023-05-22T12:21:58.770Z,9.10
2023-05-22T12:24:25.555Z,9.55
2023-05-22T12:26:53.263Z,8.05
2023-05-22T12:29:22.813Z,11.52
2023-05-22T12:31:49.480Z,11.20
2023-05-22T12:34:18.427Z,11.35
2023-05-22T12:36:46.944Z,13.75
2023-05-22T12:39:17.962Z,12.23
2023-05-22T12:41:45.642Z,11.63
2023-05-22T12:44:12.958Z,8.50
2023-05-22T12:46:41.010Z,9.02
2023-05-22T12:49:07.882Z,10.55
2023-05-22T12:51:34.847Z,8.45
2023-05-22T12:54:02.160Z,8.55
2023-05-22T12:56:31.760Z,12.73
2023-05-22T12:58:58.878Z,12.90
2023-05-22T13:01:26.221Z,11.77
2023-05-22T13:03:53.086Z,11.27
2023-05-22T13:06:20.356Z,8.77
2023-05-22T13:08:46.902Z,10.15
2023-05-22T13:11:13.332Z,9.80
2023-05-22T13:13:39.967Z,13.23
2023-05-22T13:16:06.501Z,12.00
2023-05-22T13:18:32.976Z,12.88
2023-05-22T13:21:00.229Z,13.48
2023-05-22T13:23:26.773Z,14.65
2023-05-22T13:25:53.295Z,20.73
2023-05-22T13:28:19.803Z,14.10
2023-05-22T13:30:46.236Z,14.55
2023-05-22T13:33:13.510Z,15.85
2023-05-22T13:35:40.337Z,11.43
2023-05-22T13:38:07.195Z,12.20
2023-05-22T13:40:33.730Z,10.85
2023-05-22T13:43:00.258Z,11.43
2023-05-22T13:45:27.643Z,13.38
2023-05-22T13:47:54.302Z,12.73
2023-05-22T13:50:20.840Z,10.70
2023-05-22T13:52:47.374Z,9.23
2023-05-22T13:55:13.892Z,9.23
2023-05-22T13:57:40.665Z,9.73
2023-05-22T14:00:09.319Z,9.05
2023-05-22T14:02:36.061Z,7.55
2023-05-22T14:05:02.829Z,9.50
2023-05-22T14:07:29.292Z,7.68
2023-05-22T14:09:55.824Z,9.82
2023-05-22T14:12:22.284Z,8.80
2023-05-22T14:14:48.726Z,8.88
2023-05-22T14:17:15.218Z,6.68
2023-05-22T14:19:41.742Z,8.48
2023-05-22T14:22:08.199Z,8.48
2023-05-22T14:24:34.727Z,11.40
2023-05-22T14:27:01.264Z,7.43
2023-05-22T14:29:28.070Z,8.45
2023-05-22T14:32:01.203Z,6.78
2023-05-22T14:34:27.690Z,8.55
2023-05-22T14:36:56.457Z,7.47
2023-05-22T14:39:24.632Z,10.35
2023-05-22T14:41:52.488Z,9.95
2023-05-22T14:44:19.511Z,9.30
2023-05-22T14:46:46.227Z,10.57
2023-05-22T14:49:12.857Z,8.57
2023-05-22T14:51:39.337Z,8.30
2023-05-22T14:54:06.838Z,7.45
2023-05-22T14:56:33.534Z,8.82
2023-05-22T14:59:00.031Z,9.70
2023-05-22T15:01:26.651Z,8.90
2023-05-22T15:03:53.192Z,6.55
2023-05-22T15:06:19.649Z,7.57
2023-05-22T15:08:46.091Z,7.25
2023-05-22T15:11:12.636Z,7.40
2023-05-22T15:13:39.069Z,7.95
2023-05-22T15:16:05.583Z,10.10
2023-05-22T15:18:32.072Z,6.90
2023-05-22T15:20:58.665Z,7.70
2023-05-22T15:23:26.488Z,7.07
2023-05-22T15:25:53.891Z,8.30
2023-05-22T15:28:21.364Z,7.63
2023-05-22T15:30:47.868Z,7.07
2023-05-22T15:33:15.093Z,6.32
2023-05-22T15:35:43.424Z,6.03
2023-05-22T15:38:12.522Z,4.78
2023-05-22T15:40:44.302Z,5.55
2023-05-22T15:43:10.911Z,5.20
2023-05-22T15:45:38.144Z,4.85
2023-05-22T15:48:05.868Z,4.40
2023-05-22T15:50:33.771Z,3.95
2023-05-22T15:53:01.014Z,2.88
2023-05-22T15:55:28.768Z,3.88
2023-05-22T15:57:55.296Z,3.08
2023-05-22T16:00:21.886Z,4.38
2023-05-22T16:02:49.249Z,2.83
2023-05-22T16:05:16.169Z,3.67
2023-05-22T16:07:42.592Z,3.35
2023-05-22T16:10:09.373Z,5.53
2023-05-22T16:12:35.914Z,5.55
2023-05-22T16:15:03.835Z,3.90
2023-05-22T16:17:31.713Z,4.85
2023-05-22T16:19:58.227Z,5.95
2023-05-22T16:22:30.401Z,3.25
2023-05-22T16:25:03.190Z,4.88
2023-05-22T16:27:29.680Z,3.95
2023-05-22T16:29:56.201Z,4.43
2023-05-22T16:32:22.977Z,3.55
2023-05-22T16:34:49.520Z,5.43
2023-05-22T16:37:15.993Z,4.78
2023-05-22T16:39:45.908Z,5.05
2023-05-22T16:42:12.632Z,4.90
2023-05-22T16:44:39.057Z,6.88
2023-05-22T16:47:05.628Z,5.07
2023-05-22T16:49:32.178Z,3.33
2023-05-22T16:51:58.778Z,4.55
2023-05-22T16:54:25.311Z,4.55
2023-05-22T16:56:51.952Z,5.50
2023-05-22T16:59:19.436Z,5.47
2023-05-22T17:01:46.654Z,4.15
2023-05-22T17:04:15.585Z,6.47
2023-05-22T17:06:43.316Z,5.05
2023-05-22T17:09:10.343Z,3.88
2023-05-22T17:11:37.412Z,3.78
2023-05-22T17:14:04.393Z,4.07
2023-05-22T17:16:31.493Z,5.05
2023-05-22T17:18:58.042Z,5.70
2023-05-22T17:21:24.642Z,5.07
2023-05-22T17:23:51.078Z,5.55
2023-05-22T17:26:17.551Z,5.70
2023-05-22T17:28:44.522Z,4.60
2023-05-22T17:31:10.981Z,6.10
2023-05-22T17:33:37.490Z,6.05
2023-05-22T17:36:04.151Z,6.75
2023-05-22T17:38:30.795Z,5.68
2023-05-22T17:40:57.751Z,5.60
2023-05-22T17:43:24.253Z,6.47
2023-05-22T17:45:50.914Z,6.32
2023-05-22T17:48:26.929Z,7.07
2023-05-22T17:50:53.729Z,5.35
2023-05-22T17:53:20.990Z,5.47
2023-05-22T17:55:49.319Z,7.63
2023-05-22T17:58:16.644Z,10.05
2023-05-22T18:00:43.553Z,6.35
2023-05-22T18:03:10.166Z,6.85
2023-05-22T18:05:36.747Z,6.45
2023-05-22T18:08:03.519Z,6.60
2023-05-22T18:10:30.080Z,4.97
2023-05-22T18:12:56.541Z,8.13
2023-05-22T18:15:23.180Z,5.13
2023-05-22T18:17:49.723Z,5.93
2023-05-22T18:20:16.838Z,8.65
2023-05-22T18:22:43.394Z,9.20
2023-05-22T18:25:10.066Z,7.72
2023-05-22T18:27:36.672Z,6.07
2023-05-22T18:30:05.029Z,7.68
2023-05-22T18:32:31.759Z,7.95
2023-05-22T18:35:03.771Z,5.10
2023-05-22T18:37:30.313Z,6.18
2023-05-22T18:39:57.033Z,5.32
2023-05-22T18:42:23.750Z,7.18
2023-05-22T18:44:50.664Z,6.40
2023-05-22T18:47:17.455Z,5.55
2023-05-22T18:49:43.990Z,6.82
2023-05-22T18:52:10.481Z,7.47
2023-05-22T18:54:36.949Z,8.07
2023-05-22T18:57:03.733Z,8.05
2023-05-22T18:59:30.170Z,8.38
2023-05-22T19:01:56.639Z,6.88
2023-05-22T19:04:23.118Z,8.02
2023-05-22T19:06:49.593Z,5.95
2023-05-22T19:09:16.599Z,7.50
2023-05-22T19:11:43.073Z,5.97
2023-05-22T19:14:09.510Z,7.65
2023-05-22T19:16:35.956Z,6.13
2023-05-22T19:19:03.162Z,8.85
2023-05-22T19:21:29.653Z,6.70
2023-05-22T19:23:56.115Z,7.28
2023-05-22T19:26:22.664Z,8.27
2023-05-22T19:28:49.182Z,7.97
2023-05-22T19:31:16.387Z,7.22
2023-05-22T19:33:43.621Z,7.85
2023-05-22T19:36:10.098Z,8.07
2023-05-22T19:38:36.593Z,6.93
2023-05-22T19:41:03.098Z,10.02
2023-05-22T19:43:31.246Z,7.75
2023-05-22T19:45:58.403Z,10.13
2023-05-22T19:48:25.611Z,11.02
2023-05-22T19:50:52.288Z,6.97
2023-05-22T19:53:18.885Z,9.95
2023-05-22T19:55:45.922Z,8.82
2023-05-22T19:58:12.361Z,8.77
2023-05-22T20:00:39.223Z,7.88
2023-05-22T20:03:05.987Z,8.55
2023-05-22T20:05:32.690Z,11.55
2023-05-22T20:07:59.239Z,7.95
2023-05-22T20:10:25.998Z,8.27
2023-05-22T20:12:55.595Z,8.20
2023-05-22T20:15:22.751Z,10.40
2023-05-22T20:17:51.985Z,7.65
2023-05-22T20:20:19.470Z,11.13
2023-05-22T20:22:46.104Z,11.68
2023-05-22T20:25:13.597Z,8.43
2023-05-22T20:27:40.226Z,10.68
2023-05-22T20:30:07.809Z,11.50
2023-05-22T20:32:34.691Z,12.73
2023-05-22T20:35:01.111Z,14.20
2023-05-22T20:37:27.597Z,10.48
2023-05-22T20:39:54.303Z,11.00
2023-05-22T20:42:22.318Z,14.30
2023-05-22T20:44:48.787Z,11.18
2023-05-22T20:47:15.259Z,8.50
2023-05-22T20:49:41.850Z,12.43
2023-05-22T20:52:09.955Z,9.77
2023-05-22T20:54:36.476Z,6.50
2023-05-22T20:57:03.229Z,7.78
2023-05-22T20:59:29.884Z,8.90
2023-05-22T21:01:57.015Z,6.97
2023-05-22T21:04:23.964Z,5.55
2023-05-22T21:06:50.918Z,8.48
2023-05-22T21:09:17.422Z,5.95
2023-05-22T21:11:43.910Z,5.03
2023-05-22T21:14:10.340Z,5.63
2023-05-22T21:16:39.293Z,6.93
2023-05-22T21:19:06.990Z,4.78
2023-05-22T21:21:33.663Z,5.03
2023-05-22T21:24:00.126Z,6.40
2023-05-22T21:26:27.459Z,8.73
2023-05-22T21:28:54.640Z,5.95
2023-05-22T21:31:21.200Z,5.28
2023-05-22T21:33:47.711Z,6.32
2023-05-22T21:36:14.139Z,6.63
2023-05-22T21:38:41.043Z,4.75
2023-05-22T21:41:07.532Z,4.68
2023-05-22T21:43:34.051Z,4.55
2023-05-22T21:46:00.526Z,6.20
2023-05-22T21:48:26.963Z,6.22
2023-05-22T21:50:53.454Z,4.90
2023-05-22T21:53:20.789Z,8.30
2023-05-22T21:55:47.248Z,6.22
2023-05-22T21:58:13.750Z,6.93
2023-05-22T22:00:41.105Z,5.47
2023-05-22T22:03:07.992Z,7.05
2023-05-22T22:05:35.937Z,5.88
2023-05-22T22:08:02.496Z,4.57
2023-05-22T22:10:29.009Z,6.97
2023-05-22T22:12:55.673Z,5.47
2023-05-22T22:15:22.469Z,5.65
2023-05-22T22:17:50.147Z,6.75
2023-05-22T22:20:18.675Z,6.80
2023-05-22T22:22:49.018Z,5.50
2023-05-22T22:25:15.490Z,7.90
2023-05-22T22:27:41.985Z,7.70
2023-05-22T22:30:09.130Z,8.27
2023-05-22T22:32:36.594Z,10.43
2023-05-22T22:35:03.086Z,5.07
2023-05-22T22:37:29.570Z,7.63
2023-05-22T22:39:56.162Z,8.73
2023-05-22T22:42:22.908Z,7.72
2023-05-22T22:44:49.433Z,7.35
2023-05-22T22:47:15.968Z,9.05
2023-05-22T22:49:42.385Z,7.45
2023-05-22T22:52:08.905Z,8.73
2023-05-22T22:54:35.490Z,7.95
2023-05-22T22:57:02.228Z,9.63
2023-05-22T22:59:28.763Z,7.57
2023-05-22T23:01:55.246Z,8.90
2023-05-22T23:04:21.796Z,7.05
2023-05-22T23:06:48.294Z,12.10
2023-05-22T23:09:14.845Z,8.20
2023-05-22T23:11:41.378Z,11.30
2023-05-22T23:14:09.460Z,9.05
2023-05-22T23:16:37.371Z,10.00
2023-05-22T23:19:04.729Z,8.63
2023-05-22T23:21:32.177Z,9.27
2023-05-22T23:23:59.206Z,10.73
2023-05-22T23:26:26.721Z,6.60
2023-05-22T23:28:53.249Z,10.35
2023-05-22T23:31:21.183Z,10.15
2023-05-22T23:33:47.849Z,10.82
2023-05-22T23:36:14.329Z,9.52
2023-05-22T23:38:40.918Z,9.13
2023-05-22T23:41:07.390Z,9.48
2023-05-22T23:43:33.827Z,12.05
2023-05-22T23:46:00.421Z,13.35
2023-05-22T23:48:26.924Z,13.68
2023-05-22T23:50:53.338Z,9.45
2023-05-22T23:53:19.754Z,7.95
2023-05-22T23:55:46.340Z,10.68
2023-05-22T23:58:12.816Z,11.73
